Battle Creek, MI (49016)

7:47 PM EDT on July 24, 2016 (GMT -0400)
Brownlee Park | | Change Station

Elev 912 ft 42.32 °N, 85.14 °W | Updated 10 minutes ago

Partly Cloudy
Partly Cloudy
85.8 °F
Feels Like 98 °F
N
4.2
Wind Variable Wind from SSW

Today
High -- | Low -- °F
--% Chance of Precip.
Yesterday
High -- | Low -- °F
Precip. -- in
Pressure 29.88 in
Visibility 10.0 miles
Clouds Few 10000 ft
Heat Index 98 °F
Dew Point 78 °F
Humidity 78%
Rainfall 1.59 in
Snow Depth Not available.
6:25 AM 9:07 PM
Waning Gibbous, 72% visible
METAR KBTL 242253Z 21010KT 10SM FEW100 29/25 A2990 RMK AO2 SLP116 T02890250 $
Pressure 29.88 in
Visibility 10.0 miles
Clouds Few 10000 ft
Heat Index 98 °F
Dew Point 78 °F
Humidity 78%
Rainfall 1.59 in
Snow Depth Not available.
6:25 AM 9:07 PM
Waning Gibbous, 72% visible
METAR KBTL 242253Z 21010KT 10SM FEW100 29/25 A2990 RMK AO2 SLP116 T02890250 $

10-Day Weather Forecast

Almanac

Astronomy

Jul. 24, 2016 Rise Set
Actual Time
Civil Twilight
Nautical Twilight
Astronomical Twilight
Moon
Length of Visible Light
Length of Day
Tomorrow will be .
, % of the Moon is Illuminated

Today's Extremes

State Highs State Lows

Community

WunderPhotos

Upload Photos

1,927,207 photos uploaded!

WunderBlog® & News

Nearby

Air Quality

  Air Quality AQ Index Pollutant
Not available.

Snow Depth

Station Depth Elevation

Earthquake Activity

City Distance Mag. Time & Date
Minimum magnitude displayed is 2.5.

Coastal Water Temperatures

Place Temperature

Stations

Nearby Weather Stations

Station Location Temp. Windchill Dew Point Humidity Wind Precip. Elev Updated Type
                   

Watches & Warnings

There are currently no watches in effect.